sensor_id;sensor_type;location;lat;lon;timestamp;pressure;altitude;pressure_sealevel;temperature;humidity
53506;BME280;39388;50.936;6.848;2023-01-27T00:00:20;101631.13;;;4.62;91.58
53506;BME280;39388;50.936;6.848;2023-01-27T00:02:50;101621.78;;;4.61;91.82
53506;BME280;39388;50.936;6.848;2023-01-27T00:05:21;101627.06;;;4.67;91.40
53506;BME280;39388;50.936;6.848;2023-01-27T00:07:51;101625.28;;;4.65;91.28
53506;BME280;39388;50.936;6.848;2023-01-27T00:10:22;101623.41;;;4.59;91.12
53506;BME280;39388;50.936;6.848;2023-01-27T00:12:52;101625.22;;;4.63;90.53
53506;BME280;39388;50.936;6.848;2023-01-27T00:15:41;101637.19;;;4.64;90.96
53506;BME280;39388;50.936;6.848;2023-01-27T00:18:11;101632.84;;;4.61;90.96
53506;BME280;39388;50.936;6.848;2023-01-27T00:20:42;101632.56;;;4.54;91.31
53506;BME280;39388;50.936;6.848;2023-01-27T00:23:31;101636.16;;;4.59;90.97
53506;BME280;39388;50.936;6.848;2023-01-27T00:26:20;101635.16;;;4.55;90.42
53506;BME280;39388;50.936;6.848;2023-01-27T00:28:50;101636.00;;;4.54;90.95
53506;BME280;39388;50.936;6.848;2023-01-27T00:31:21;101646.28;;;4.56;90.52
53506;BME280;39388;50.936;6.848;2023-01-27T00:34:10;101640.19;;;4.52;90.68
53506;BME280;39388;50.936;6.848;2023-01-27T00:36:41;101647.94;;;4.55;90.74
53506;BME280;39388;50.936;6.848;2023-01-27T00:39:11;101621.00;;;4.39;89.98
53506;BME280;39388;50.936;6.848;2023-01-27T00:41:42;101644.41;;;4.52;90.67
53506;BME280;39388;50.936;6.848;2023-01-27T00:44:12;101643.50;;;4.50;90.45
53506;BME280;39388;50.936;6.848;2023-01-27T00:46:42;101629.44;;;4.37;90.89
53506;BME280;39388;50.936;6.848;2023-01-27T00:49:13;101653.06;;;4.55;90.48
53506;BME280;39388;50.936;6.848;2023-01-27T00:51:43;101647.94;;;4.55;90.74
53506;BME280;39388;50.936;6.848;2023-01-27T00:54:14;101652.31;;;4.58;90.13
53506;BME280;39388;50.936;6.848;2023-01-27T00:56:44;101648.97;;;4.60;90.11
53506;BME280;39388;50.936;6.848;2023-01-27T00:59:14;101634.28;;;4.53;90.02
53506;BME280;39388;50.936;6.848;2023-01-27T01:01:45;101649.94;;;4.64;90.58
53506;BME280;39388;50.936;6.848;2023-01-27T01:04:15;101652.50;;;4.64;90.16
53506;BME280;39388;50.936;6.848;2023-01-27T01:06:45;101659.34;;;4.65;89.55
53506;BME280;39388;50.936;6.848;2023-01-27T01:09:16;101654.19;;;4.64;89.72
53506;BME280;39388;50.936;6.848;2023-01-27T01:11:46;101661.97;;;4.67;89.75
53506;BME280;39388;50.936;6.848;2023-01-27T01:14:17;101659.31;;;4.64;89.83
53506;BME280;39388;50.936;6.848;2023-01-27T01:16:47;101667.09;;;4.67;89.31
53506;BME280;39388;50.936;6.848;2023-01-27T01:19:17;101673.00;;;4.66;89.15
53506;BME280;39388;50.936;6.848;2023-01-27T01:21:48;101666.22;;;4.66;88.66
53506;BME280;39388;50.936;6.848;2023-01-27T01:24:18;101663.53;;;4.63;88.69
53506;BME280;39388;50.936;6.848;2023-01-27T01:26:49;101673.06;;;4.67;88.19
53506;BME280;39388;50.936;6.848;2023-01-27T01:29:19;101676.53;;;4.69;87.86
53506;BME280;39388;50.936;6.848;2023-01-27T01:31:50;101672.25;;;4.68;87.91
53506;BME280;39388;50.936;6.848;2023-01-27T01:34:20;101676.53;;;4.69;86.81
53506;BME280;39388;50.936;6.848;2023-01-27T01:36:50;101668.72;;;4.65;86.91
53506;BME280;39388;50.936;6.848;2023-01-27T01:39:21;101673.06;;;4.67;86.64
53506;BME280;39388;50.936;6.848;2023-01-27T01:41:51;101674.75;;;4.67;87.09
53506;BME280;39388;50.936;6.848;2023-01-27T01:44:24;101665.25;;;4.63;86.15
53506;BME280;39388;50.936;6.848;2023-01-27T01:46:55;101686.72;;;4.68;85.96
53506;BME280;39388;50.936;6.848;2023-01-27T01:49:34;101679.88;;;4.67;86.23
53506;BME280;39388;50.936;6.848;2023-01-27T01:52:13;101689.28;;;4.68;85.20
53506;BME280;39388;50.936;6.848;2023-01-27T01:54:50;101682.34;;;4.65;85.27
53506;BME280;39388;50.936;6.848;2023-01-27T01:57:32;101680.59;;;4.64;85.67
53506;BME280;39388;50.936;6.848;2023-01-27T02:00:13;101681.34;;;4.60;85.02
53506;BME280;39388;50.936;6.848;2023-01-27T02:02:45;101693.38;;;4.64;84.79
53506;BME280;39388;50.936;6.848;2023-01-27T02:05:21;101695.00;;;4.62;84.55
53506;BME280;39388;50.936;6.848;2023-01-27T02:07:56;101682.06;;;4.57;84.80
53506;BME280;39388;50.936;6.848;2023-01-27T02:10:28;101687.19;;;4.57;85.26
53506;BME280;39388;50.936;6.848;2023-01-27T02:12:59;101684.75;;;4.60;85.20
53506;BME280;39388;50.936;6.848;2023-01-27T02:15:30;101675.22;;;4.56;85.03
53506;BME280;39388;50.936;6.848;2023-01-27T02:18:04;101687.41;;;4.64;85.13
53506;BME280;39388;50.936;6.848;2023-01-27T02:26:21;101687.28;;;4.60;83.90
53506;BME280;39388;50.936;6.848;2023-01-27T02:28:55;101690.81;;;4.64;84.78
53506;BME280;39388;50.936;6.848;2023-01-27T02:31:26;101675.22;;;4.56;84.88
53506;BME280;39388;50.936;6.848;2023-01-27T02:33:59;101678.78;;;4.60;84.68
53506;BME280;39388;50.936;6.848;2023-01-27T02:36:36;101685.66;;;4.63;84.91
53506;BME280;39388;50.936;6.848;2023-01-27T02:39:10;101689.06;;;4.63;84.05
53506;BME280;39388;50.936;6.848;2023-01-27T02:41:57;101676.88;;;4.54;84.39
53506;BME280;39388;50.936;6.848;2023-01-27T02:44:27;101688.22;;;4.63;84.87
53506;BME280;39388;50.936;6.848;2023-01-27T02:46:58;101694.16;;;4.61;84.83
53506;BME280;39388;50.936;6.848;2023-01-27T02:49:28;101696.69;;;4.61;84.41
53506;BME280;39388;50.936;6.848;2023-01-27T02:51:58;101704.38;;;4.61;85.00
53506;BME280;39388;50.936;6.848;2023-01-27T02:54:29;101704.38;;;4.61;84.69
53506;BME280;39388;50.936;6.848;2023-01-27T02:57:00;101709.47;;;4.61;84.87
53506;BME280;39388;50.936;6.848;2023-01-27T02:59:30;101700.88;;;4.59;85.10
53506;BME280;39388;50.936;6.848;2023-01-27T03:02:00;101700.03;;;4.59;84.31
53506;BME280;39388;50.936;6.848;2023-01-27T03:04:34;101708.63;;;4.61;84.81
53506;BME280;39388;50.936;6.848;2023-01-27T03:07:07;101698.31;;;4.59;84.15
53506;BME280;39388;50.936;6.848;2023-01-27T03:09:38;101709.34;;;4.58;84.45
53506;BME280;39388;50.936;6.848;2023-01-27T03:12:08;101710.28;;;4.60;83.98
53506;BME280;39388;50.936;6.848;2023-01-27T03:14:51;101703.31;;;4.56;83.57
53506;BME280;39388;50.936;6.848;2023-01-27T03:17:40;101705.94;;;4.58;83.38
53506;BME280;39388;50.936;6.848;2023-01-27T03:20:29;101704.22;;;4.57;83.92
53506;BME280;39388;50.936;6.848;2023-01-27T03:23:00;101709.34;;;4.58;82.92
53506;BME280;39388;50.936;6.848;2023-01-27T03:25:30;101693.03;;;4.53;82.84
53506;BME280;39388;50.936;6.848;2023-01-27T03:28:01;101707.47;;;4.53;82.20
53506;BME280;39388;50.936;6.848;2023-01-27T03:30:31;101693.72;;;4.49;82.64
53506;BME280;39388;50.936;6.848;2023-01-27T03:33:04;101706.53;;;4.51;82.21
53506;BME280;39388;50.936;6.848;2023-01-27T03:35:36;101703.94;;;4.49;82.25
53506;BME280;39388;50.936;6.848;2023-01-27T03:38:17;101705.59;;;4.49;82.81
53506;BME280;39388;50.936;6.848;2023-01-27T03:41:06;101714.91;;;4.47;81.93
53506;BME280;39388;50.936;6.848;2023-01-27T03:43:55;101705.50;;;4.45;82.14
53506;BME280;39388;50.936;6.848;2023-01-27T03:46:44;101702.75;;;4.41;82.38
53506;BME280;39388;50.936;6.848;2023-01-27T03:49:14;101707.88;;;4.41;81.99
53506;BME280;39388;50.936;6.848;2023-01-27T03:51:45;101707.19;;;4.45;81.95
53506;BME280;39388;50.936;6.848;2023-01-27T03:54:15;101708.72;;;4.40;82.16
53506;BME280;39388;50.936;6.848;2023-01-27T03:56:45;101713.81;;;4.40;82.06
53506;BME280;39388;50.936;6.848;2023-01-27T03:59:17;101725.94;;;4.45;81.96
53506;BME280;39388;50.936;6.848;2023-01-27T04:01:47;101711.28;;;4.40;81.98
53506;BME280;39388;50.936;6.848;2023-01-27T04:04:17;101708.59;;;4.37;81.78
53506;BME280;39388;50.936;6.848;2023-01-27T04:07:06;101717.28;;;4.42;81.75
53506;BME280;39388;50.936;6.848;2023-01-27T04:09:37;101720.59;;;4.39;81.56
53506;BME280;39388;50.936;6.848;2023-01-27T04:12:11;101720.63;;;4.41;81.90
53506;BME280;39388;50.936;6.848;2023-01-27T04:14:41;101726.59;;;4.40;82.08
53506;BME280;39388;50.936;6.848;2023-01-27T04:17:14;101723.09;;;4.38;81.85
53506;BME280;39388;50.936;6.848;2023-01-27T04:19:45;101729.03;;;4.37;81.98
53506;BME280;39388;50.936;6.848;2023-01-27T04:22:16;101713.41;;;4.29;81.49
53506;BME280;39388;50.936;6.848;2023-01-27T04:24:46;101718.66;;;4.32;81.52
53506;BME280;39388;50.936;6.848;2023-01-27T04:27:16;101720.31;;;4.32;82.00
53506;BME280;39388;50.936;6.848;2023-01-27T04:29:49;101721.00;;;4.27;82.21
53506;BME280;39388;50.936;6.848;2023-01-27T04:32:19;101725.31;;;4.28;82.22
53506;BME280;39388;50.936;6.848;2023-01-27T04:34:50;101723.63;;;4.29;82.18
53506;BME280;39388;50.936;6.848;2023-01-27T04:37:20;101713.19;;;4.23;82.41
53506;BME280;39388;50.936;6.848;2023-01-27T04:39:50;101723.69;;;4.30;82.28
53506;BME280;39388;50.936;6.848;2023-01-27T04:42:21;101717.44;;;4.22;82.35
53506;BME280;39388;50.936;6.848;2023-01-27T04:44:51;101720.03;;;4.24;82.55
53506;BME280;39388;50.936;6.848;2023-01-27T04:47:21;101721.72;;;4.23;82.54
53506;BME280;39388;50.936;6.848;2023-01-27T04:49:52;101718.13;;;4.18;82.60
53506;BME280;39388;50.936;6.848;2023-01-27T04:52:22;101727.75;;;4.25;82.54
53506;BME280;39388;50.936;6.848;2023-01-27T04:54:52;101735.34;;;4.24;83.09
53506;BME280;39388;50.936;6.848;2023-01-27T04:57:23;101738.72;;;4.23;83.00
53506;BME280;39388;50.936;6.848;2023-01-27T04:59:53;101740.31;;;4.21;82.60
53506;BME280;39388;50.936;6.848;2023-01-27T05:02:23;101752.28;;;4.22;82.65
53506;BME280;39388;50.936;6.848;2023-01-27T05:04:55;101741.91;;;4.17;82.93
53506;BME280;39388;50.936;6.848;2023-01-27T05:07:25;101747.00;;;4.17;82.44
53506;BME280;39388;50.936;6.848;2023-01-27T05:09:56;101738.41;;;4.15;83.17
53506;BME280;39388;50.936;6.848;2023-01-27T05:12:26;101748.75;;;4.18;82.96
53506;BME280;39388;50.936;6.848;2023-01-27T05:14:56;101742.72;;;4.16;83.11
53506;BME280;39388;50.936;6.848;2023-01-27T05:17:31;101751.25;;;4.17;83.56
53506;BME280;39388;50.936;6.848;2023-01-27T05:20:02;101761.47;;;4.17;83.18
53506;BME280;39388;50.936;6.848;2023-01-27T05:22:33;101757.09;;;4.14;83.53
53506;BME280;39388;50.936;6.848;2023-01-27T05:25:04;101751.91;;;4.11;83.35
53506;BME280;39388;50.936;6.848;2023-01-27T05:27:35;101755.34;;;4.13;83.06
53506;BME280;39388;50.936;6.848;2023-01-27T05:30:06;101761.47;;;4.17;83.61
53506;BME280;39388;50.936;6.848;2023-01-27T05:32:36;101764.88;;;4.17;83.27
53506;BME280;39388;50.936;6.848;2023-01-27T05:35:07;101756.25;;;4.13;83.16
53506;BME280;39388;50.936;6.848;2023-01-27T05:37:37;101769.13;;;4.17;83.50
53506;BME280;39388;50.936;6.848;2023-01-27T05:40:08;101757.81;;;4.10;83.14
53506;BME280;39388;50.936;6.848;2023-01-27T05:42:40;101749.09;;;4.05;83.69
53506;BME280;39388;50.936;6.848;2023-01-27T05:45:10;101763.00;;;4.13;83.34
53506;BME280;39388;50.936;6.848;2023-01-27T05:47:40;101766.31;;;4.10;83.62
53506;BME280;39388;50.936;6.848;2023-01-27T05:50:11;101775.97;;;4.18;83.31
53506;BME280;39388;50.936;6.848;2023-01-27T05:52:41;101770.66;;;4.13;83.73
53506;BME280;39388;50.936;6.848;2023-01-27T05:55:11;101771.59;;;4.15;83.95
53506;BME280;39388;50.936;6.848;2023-01-27T05:57:42;101781.13;;;4.19;83.97
53506;BME280;39388;50.936;6.848;2023-01-27T06:00:13;101776.03;;;4.19;84.05
53506;BME280;39388;50.936;6.848;2023-01-27T06:02:43;101770.75;;;4.14;83.91
53506;BME280;39388;50.936;6.848;2023-01-27T06:05:13;101768.25;;;4.16;84.06
53506;BME280;39388;50.936;6.848;2023-01-27T06:07:44;101782.88;;;4.20;84.13
53506;BME280;39388;50.936;6.848;2023-01-27T06:10:14;101786.22;;;4.19;84.22
53506;BME280;39388;50.936;6.848;2023-01-27T06:12:45;101782.63;;;4.14;84.59
53506;BME280;39388;50.936;6.848;2023-01-27T06:15:15;101778.56;;;4.19;84.54
53506;BME280;39388;50.936;6.848;2023-01-27T06:17:46;101789.72;;;4.21;84.77
53506;BME280;39388;50.936;6.848;2023-01-27T06:20:16;101770.78;;;4.16;84.65
53506;BME280;39388;50.936;6.848;2023-01-27T06:22:46;101780.31;;;4.20;84.69
53506;BME280;39388;50.936;6.848;2023-01-27T06:25:17;101773.50;;;4.21;84.84
53506;BME280;39388;50.936;6.848;2023-01-27T06:27:47;101779.38;;;4.18;85.09
53506;BME280;39388;50.936;6.848;2023-01-27T06:30:17;101775.16;;;4.19;85.04
53506;BME280;39388;50.936;6.848;2023-01-27T06:32:48;101789.75;;;4.23;85.18
53506;BME280;39388;50.936;6.848;2023-01-27T06:35:18;101773.34;;;4.16;85.21
53506;BME280;39388;50.936;6.848;2023-01-27T06:37:49;101785.56;;;4.23;85.65
53506;BME280;39388;50.936;6.848;2023-01-27T06:40:20;101781.25;;;4.22;85.02
53506;BME280;39388;50.936;6.848;2023-01-27T06:42:51;101791.50;;;4.24;85.16
53506;BME280;39388;50.936;6.848;2023-01-27T06:45:21;101791.50;;;4.24;84.95
53506;BME280;39388;50.936;6.848;2023-01-27T06:47:59;101801.72;;;4.24;85.09
53506;BME280;39388;50.936;6.848;2023-01-27T06:50:30;101787.81;;;4.15;85.79
53506;BME280;39388;50.936;6.848;2023-01-27T06:53:03;101781.63;;;4.10;85.74
53506;BME280;39388;50.936;6.848;2023-01-27T06:55:37;101804.34;;;4.25;85.53
53506;BME280;39388;50.936;6.848;2023-01-27T06:58:12;101801.72;;;4.24;85.33
53506;BME280;39388;50.936;6.848;2023-01-27T07:00:42;101801.72;;;4.24;85.32
53506;BME280;39388;50.936;6.848;2023-01-27T07:03:13;101800.88;;;4.23;85.18
53506;BME280;39388;50.936;6.848;2023-01-27T07:05:44;101809.56;;;4.28;85.34
53506;BME280;39388;50.936;6.848;2023-01-27T07:08:14;101810.31;;;4.26;86.17
53506;BME280;39388;50.936;6.848;2023-01-27T07:10:45;101812.06;;;4.27;85.29
53506;BME280;39388;50.936;6.848;2023-01-27T07:13:15;101808.81;;;4.31;85.81
53506;BME280;39388;50.936;6.848;2023-01-27T07:15:53;101815.53;;;4.29;85.43
53506;BME280;39388;50.936;6.848;2023-01-27T07:18:23;101811.16;;;4.26;85.29
53506;BME280;39388;50.936;6.848;2023-01-27T07:20:54;101811.25;;;4.28;85.72
53506;BME280;39388;50.936;6.848;2023-01-27T07:23:24;101831.00;;;4.32;85.68
53506;BME280;39388;50.936;6.848;2023-01-27T07:25:54;101808.69;;;4.28;85.62
53506;BME280;39388;50.936;6.848;2023-01-27T07:28:25;101812.88;;;4.26;85.91
53506;BME280;39388;50.936;6.848;2023-01-27T07:31:00;101805.16;;;4.24;85.64
53506;BME280;39388;50.936;6.848;2023-01-27T07:33:30;101816.47;;;4.31;85.84
53506;BME280;39388;50.936;6.848;2023-01-27T07:36:01;101819.97;;;4.33;85.73
53506;BME280;39388;50.936;6.848;2023-01-27T07:38:31;101825.16;;;4.36;85.64
53506;BME280;39388;50.936;6.848;2023-01-27T07:41:06;101832.16;;;4.40;85.95
53506;BME280;39388;50.936;6.848;2023-01-27T07:43:36;101831.28;;;4.40;85.77
53506;BME280;39388;50.936;6.848;2023-01-27T07:46:07;101838.19;;;4.42;85.58
53506;BME280;39388;50.936;6.848;2023-01-27T07:48:37;101839.00;;;4.41;85.82
53506;BME280;39388;50.936;6.848;2023-01-27T07:51:11;101841.56;;;4.41;85.80
53506;BME280;39388;50.936;6.848;2023-01-27T07:53:42;101840.75;;;4.42;86.36
53506;BME280;39388;50.936;6.848;2023-01-27T07:56:13;101830.44;;;4.41;86.28
53506;BME280;39388;50.936;6.848;2023-01-27T07:58:43;101840.91;;;4.47;85.96
53506;BME280;39388;50.936;6.848;2023-01-27T08:01:14;101839.25;;;4.48;85.64
53506;BME280;39388;50.936;6.848;2023-01-27T08:03:44;101848.09;;;4.57;85.79
53506;BME280;39388;50.936;6.848;2023-01-27T08:06:15;101839.88;;;4.65;85.34
53506;BME280;39388;50.936;6.848;2023-01-27T08:08:45;101837.25;;;4.63;84.60
53506;BME280;39388;50.936;6.848;2023-01-27T08:11:16;101849.44;;;4.70;84.93
53506;BME280;39388;50.936;6.848;2023-01-27T08:13:46;101841.75;;;4.69;84.94
53506;BME280;39388;50.936;6.848;2023-01-27T08:16:17;101834.13;;;4.70;84.55
53506;BME280;39388;50.936;6.848;2023-01-27T08:18:47;101840.28;;;4.75;84.55
53506;BME280;39388;50.936;6.848;2023-01-27T08:21:17;101842.00;;;4.76;84.42
53506;BME280;39388;50.936;6.848;2023-01-27T08:23:48;101838.53;;;4.74;84.33
53506;BME280;39388;50.936;6.848;2023-01-27T08:26:18;101843.00;;;4.80;84.88
53506;BME280;39388;50.936;6.848;2023-01-27T08:28:50;101841.25;;;4.79;84.67
53506;BME280;39388;50.936;6.848;2023-01-27T08:31:20;101841.19;;;4.78;85.30
53506;BME280;39388;50.936;6.848;2023-01-27T08:33:52;101853.34;;;4.83;84.64
53506;BME280;39388;50.936;6.848;2023-01-27T08:36:23;101846.69;;;4.88;84.86
53506;BME280;39388;50.936;6.848;2023-01-27T08:38:55;101842.56;;;4.92;84.09
53506;BME280;39388;50.936;6.848;2023-01-27T08:41:26;101846.78;;;4.90;84.26
53506;BME280;39388;50.936;6.848;2023-01-27T08:43:56;101848.59;;;4.94;84.42
53506;BME280;39388;50.936;6.848;2023-01-27T08:46:27;101837.41;;;4.90;84.58
53506;BME280;39388;50.936;6.848;2023-01-27T08:48:57;101847.91;;;4.98;84.78
53506;BME280;39388;50.936;6.848;2023-01-27T08:51:27;101848.16;;;5.04;84.59
53506;BME280;39388;50.936;6.848;2023-01-27T08:53:58;101846.50;;;5.06;84.55
53506;BME280;39388;50.936;6.848;2023-01-27T08:56:28;101854.44;;;5.14;84.86
53506;BME280;39388;50.936;6.848;2023-01-27T08:58:59;101856.19;;;5.15;83.72
53506;BME280;39388;50.936;6.848;2023-01-27T09:01:30;101857.13;;;5.17;84.26
53506;BME280;39388;50.936;6.848;2023-01-27T09:04:00;101844.41;;;5.19;84.27
53506;BME280;39388;50.936;6.848;2023-01-27T09:06:30;101846.06;;;5.18;83.90
53506;BME280;39388;50.936;6.848;2023-01-27T09:09:01;101841.88;;;5.20;84.02
53506;BME280;39388;50.936;6.848;2023-01-27T09:11:42;101844.06;;;5.34;84.25
53506;BME280;39388;50.936;6.848;2023-01-27T09:14:14;101849.31;;;5.38;83.57
53506;BME280;39388;50.936;6.848;2023-01-27T09:16:44;101845.69;;;5.32;83.06
53506;BME280;39388;50.936;6.848;2023-01-27T09:19:15;101851.03;;;5.38;83.51
53506;BME280;39388;50.936;6.848;2023-01-27T09:21:45;101862.28;;;5.43;82.99
53506;BME280;39388;50.936;6.848;2023-01-27T09:24:15;101858.16;;;5.47;82.43
53506;BME280;39388;50.936;6.848;2023-01-27T09:26:46;101851.09;;;5.41;82.63
53506;BME280;39388;50.936;6.848;2023-01-27T09:29:17;101868.66;;;5.55;82.93
53506;BME280;39388;50.936;6.848;2023-01-27T09:31:48;101851.50;;;5.52;83.09
53506;BME280;39388;50.936;6.848;2023-01-27T09:34:18;101875.97;;;5.70;82.65
53506;BME280;39388;50.936;6.848;2023-01-27T09:36:52;101867.50;;;5.72;82.35
53506;BME280;39388;50.936;6.848;2023-01-27T09:39:24;101858.88;;;5.68;82.27
53506;BME280;39388;50.936;6.848;2023-01-27T09:48:05;101878.25;;;5.62;82.19
53506;BME280;39388;50.936;6.848;2023-01-27T10:05:04;101894.28;;;5.82;81.79
53506;BME280;39388;50.936;6.848;2023-01-27T10:08:03;101900.75;;;5.96;82.17
53506;BME280;39388;50.936;6.848;2023-01-27T10:22:00;101903.28;;;6.22;81.08
53506;BME280;39388;50.936;6.848;2023-01-27T10:24:47;101901.66;;;6.24;80.92
53506;BME280;39388;50.936;6.848;2023-01-27T10:27:32;101905.03;;;6.23;81.42
53506;BME280;39388;50.936;6.848;2023-01-27T10:32:44;101907.78;;;6.29;80.67
53506;BME280;39388;50.936;6.848;2023-01-27T10:35:23;101911.28;;;6.32;80.12
53506;BME280;39388;50.936;6.848;2023-01-27T10:41:31;101897.84;;;6.39;80.87
53506;BME280;39388;50.936;6.848;2023-01-27T10:47:17;101905.72;;;6.45;80.64
53506;BME280;39388;50.936;6.848;2023-01-27T10:49:56;101910.03;;;6.46;80.01
53506;BME280;39388;50.936;6.848;2023-01-27T10:52:44;101909.97;;;6.44;80.51
53506;BME280;39388;50.936;6.848;2023-01-27T10:55:53;101914.22;;;6.44;80.18
53506;BME280;39388;50.936;6.848;2023-01-27T11:01:15;101898.88;;;6.45;79.41
53506;BME280;39388;50.936;6.848;2023-01-27T11:03:52;101910.19;;;6.52;79.69
53506;BME280;39388;50.936;6.848;2023-01-27T11:06:29;101908.78;;;6.62;79.62
53506;BME280;39388;50.936;6.848;2023-01-27T11:09:11;101903.88;;;6.68;79.01
53506;BME280;39388;50.936;6.848;2023-01-27T11:11:43;101888.53;;;6.70;79.20
53506;BME280;39388;50.936;6.848;2023-01-27T11:14:28;101901.66;;;6.81;79.07
53506;BME280;39388;50.936;6.848;2023-01-27T11:17:20;101895.75;;;6.83;78.09
53506;BME280;39388;50.936;6.848;2023-01-27T11:22:36;101899.47;;;6.93;77.75
53506;BME280;39388;50.936;6.848;2023-01-27T11:28:27;101880.59;;;6.91;77.80
53506;BME280;39388;50.936;6.848;2023-01-27T11:36:27;101858.84;;;6.78;77.57
53506;BME280;39388;50.936;6.848;2023-01-27T11:38:57;101880.50;;;6.88;77.69
53506;BME280;39388;50.936;6.848;2023-01-27T11:41:36;101876.25;;;6.88;77.54
53506;BME280;39388;50.936;6.848;2023-01-27T11:44:17;101885.69;;;6.89;77.48
53506;BME280;39388;50.936;6.848;2023-01-27T11:46:49;101864.97;;;6.82;77.35
53506;BME280;39388;50.936;6.848;2023-01-27T11:49:27;101869.41;;;6.87;77.61
53506;BME280;39388;50.936;6.848;2023-01-27T11:52:04;101871.13;;;6.88;77.27
53506;BME280;39388;50.936;6.848;2023-01-27T11:54:39;101868.63;;;6.91;77.01
53506;BME280;39388;50.936;6.848;2023-01-27T11:57:23;101874.63;;;6.90;76.74
53506;BME280;39388;50.936;6.848;2023-01-27T12:00:06;101871.13;;;6.88;77.07
53506;BME280;39388;50.936;6.848;2023-01-27T12:03:17;101865.13;;;6.88;77.17
53506;BME280;39388;50.936;6.848;2023-01-27T12:05:52;101868.69;;;6.93;77.55
53506;BME280;39388;50.936;6.848;2023-01-27T12:08:41;101862.84;;;6.97;76.80
53506;BME280;39388;50.936;6.848;2023-01-27T12:19:33;101851.78;;;7.00;75.70
53506;BME280;39388;50.936;6.848;2023-01-27T12:22:09;101852.84;;;7.06;75.47
53506;BME280;39388;50.936;6.848;2023-01-27T12:24:49;101850.38;;;7.11;76.34
53506;BME280;39388;50.936;6.848;2023-01-27T12:27:24;101847.91;;;7.14;76.48
53506;BME280;39388;50.936;6.848;2023-01-27T12:30:00;101841.19;;;7.19;76.29
53506;BME280;39388;50.936;6.848;2023-01-27T12:32:43;101847.41;;;7.26;75.61
53506;BME280;39388;50.936;6.848;2023-01-27T12:35:24;101843.16;;;7.28;75.97
53506;BME280;39388;50.936;6.848;2023-01-27T12:38:03;101838.84;;;7.27;75.96
53506;BME280;39388;50.936;6.848;2023-01-27T12:40:39;101827.53;;;7.20;75.59
53506;BME280;39388;50.936;6.848;2023-01-27T12:43:16;101831.09;;;7.24;75.54
53506;BME280;39388;50.936;6.848;2023-01-27T12:46:23;101833.56;;;7.21;75.65
53506;BME280;39388;50.936;6.848;2023-01-27T12:49:11;101831.78;;;7.18;75.99
53506;BME280;39388;50.936;6.848;2023-01-27T12:51:50;101824.91;;;7.17;76.27
53506;BME280;39388;50.936;6.848;2023-01-27T12:54:25;101821.56;;;7.20;75.97
53506;BME280;39388;50.936;6.848;2023-01-27T12:57:02;101820.72;;;7.21;75.57
53506;BME280;39388;50.936;6.848;2023-01-27T12:59:33;101809.44;;;7.14;76.03
53506;BME280;39388;50.936;6.848;2023-01-27T13:02:22;101819.78;;;7.17;75.71
53506;BME280;39388;50.936;6.848;2023-01-27T13:05:03;101830.88;;;7.16;74.96
53506;BME280;39388;50.936;6.848;2023-01-27T13:07:43;101820.41;;;7.09;75.11
53506;BME280;39388;50.936;6.848;2023-01-27T13:10:22;101836.75;;;7.12;74.81
53506;BME280;39388;50.936;6.848;2023-01-27T13:12:55;101831.59;;;7.11;75.04
53506;BME280;39388;50.936;6.848;2023-01-27T13:15:28;101831.41;;;7.04;74.69
53506;BME280;39388;50.936;6.848;2023-01-27T13:18:12;101830.53;;;7.04;74.70
53506;BME280;39388;50.936;6.848;2023-01-27T13:21:02;101841.63;;;7.03;74.13
53506;BME280;39388;50.936;6.848;2023-01-27T13:23:38;101838.06;;;6.98;74.46
53506;BME280;39388;50.936;6.848;2023-01-27T13:26:15;101836.22;;;6.94;74.83
53506;BME280;39388;50.936;6.848;2023-01-27T13:28:51;101842.22;;;6.94;74.75
53506;BME280;39388;50.936;6.848;2023-01-27T13:31:33;101845.72;;;6.96;74.80
53506;BME280;39388;50.936;6.848;2023-01-27T13:42:47;101856.56;;;6.87;74.98
53506;BME280;39388;50.936;6.848;2023-01-27T13:45:23;101867.66;;;6.86;74.91
53506;BME280;39388;50.936;6.848;2023-01-27T13:48:03;101859.66;;;6.77;74.46
53506;BME280;39388;50.936;6.848;2023-01-27T13:53:18;101867.44;;;6.79;74.78
53506;BME280;39388;50.936;6.848;2023-01-27T13:58:35;101876.78;;;6.78;73.77
53506;BME280;39388;50.936;6.848;2023-01-27T14:01:40;101874.19;;;6.77;74.68
53506;BME280;39388;50.936;6.848;2023-01-27T14:07:48;101868.41;;;6.84;73.96
53506;BME280;39388;50.936;6.848;2023-01-27T14:10:35;101880.41;;;6.85;74.48
53506;BME280;39388;50.936;6.848;2023-01-27T14:16:02;101879.47;;;6.81;73.98
53506;BME280;39388;50.936;6.848;2023-01-27T14:18:41;101877.72;;;6.80;74.84
53506;BME280;39388;50.936;6.848;2023-01-27T14:27:33;101885.00;;;6.66;74.99
53506;BME280;39388;50.936;6.848;2023-01-27T14:33:17;101885.88;;;6.67;75.89
53506;BME280;39388;50.936;6.848;2023-01-27T14:41:49;101894.56;;;6.72;75.77
53506;BME280;39388;50.936;6.848;2023-01-27T14:53:01;101903.78;;;6.65;75.16
53506;BME280;39388;50.936;6.848;2023-01-27T14:58:39;101895.16;;;6.63;74.75
53506;BME280;39388;50.936;6.848;2023-01-27T15:04:15;101906.91;;;6.56;75.06
53506;BME280;39388;50.936;6.848;2023-01-27T15:24:07;101927.06;;;6.45;74.46
53506;BME280;39388;50.936;6.848;2023-01-27T15:26:41;101930.41;;;6.43;74.55
53506;BME280;39388;50.936;6.848;2023-01-27T15:29:14;101937.28;;;6.44;74.57
53506;BME280;39388;50.936;6.848;2023-01-27T15:34:40;101934.50;;;6.38;74.12
53506;BME280;39388;50.936;6.848;2023-01-27T15:37:24;101943.94;;;6.39;73.71
53506;BME280;39388;50.936;6.848;2023-01-27T15:45:34;101964.34;;;6.36;74.32
53506;BME280;39388;50.936;6.848;2023-01-27T15:48:14;101963.50;;;6.37;73.65
53506;BME280;39388;50.936;6.848;2023-01-27T15:50:47;101964.34;;;6.36;74.11
53506;BME280;39388;50.936;6.848;2023-01-27T15:53:30;101959.22;;;6.36;73.57
53506;BME280;39388;50.936;6.848;2023-01-27T15:56:03;101956.47;;;6.29;73.27
53506;BME280;39388;50.936;6.848;2023-01-27T16:01:38;101967.47;;;6.27;73.75
53506;BME280;39388;50.936;6.848;2023-01-27T16:07:03;101970.94;;;6.29;73.27